Weather at Milwaukee County Medical Complex Heliport

Public forecast

Using degrees Fahrenheit for public forecast. Weather courtesy of forecast.io.

Closest aviation weather report (METAR) to Milwaukee County Medical Complex Heliport

Closest report is Lawrence J Timmerman Airport, 4.2 nm (7.7 km) N. Retrieved 2021/06/20 09:35 UTC (0 seconds ago):

KMWC 200935Z AUTO 00000KT 10SM CLR 13/11 A2975 RMK AO2

Closest aviation forecast (TAF) to Milwaukee County Medical Complex Heliport

Closest forecast is General Mitchell International Airport, 7.9 nm (14.7 km) SE. Retrieved 2021/06/20 06:22 UTC (3 hours ago):

TAF KMKE 200520Z 2006/2112 VRB03KT P6SM FEW060 SCT250 FM201800 14009KT P6SM VCTS BKN120CB TEMPO 2019/2023 4SM -TSRA BKN040CB FM202300 11009KT P6SM SCT021 BKN040 FM210200 17008KT 6SM SHRA BR VCTS OVC025CB FM210700 29012G21KT P6SM BKN018